sensor_id;sensor_type;location;lat;lon;timestamp;pressure;altitude;pressure_sealevel;temperature
74450;BMP180;62881;53.724;0.040;2022-08-20T00:04:26;101500;;;14.39356
74450;BMP180;62881;53.724;0.040;2022-08-20T00:09:27;101500;;;14.30349
74450;BMP180;62881;53.724;0.040;2022-08-20T00:14:28;101500;;;13.9968
74450;BMP180;62881;53.724;0.040;2022-08-20T00:19:29;101500;;;13.81001
74450;BMP180;62881;53.724;0.040;2022-08-20T00:24:30;101500;;;13.80303
74450;BMP180;62881;53.724;0.040;2022-08-20T00:29:31;101500;;;13.94321
74450;BMP180;62881;53.724;0.040;2022-08-20T00:34:32;101500;;;14.15379
74450;BMP180;62881;53.724;0.040;2022-08-20T00:39:33;101400;;;14.23815
74450;BMP180;62881;53.724;0.040;2022-08-20T00:44:34;101400;;;14.15728
74450;BMP180;62881;53.724;0.040;2022-08-20T00:49:35;101400;;;14.10844
74450;BMP180;62881;53.724;0.040;2022-08-20T00:54:37;101400;;;14.07229
74450;BMP180;62881;53.724;0.040;2022-08-20T00:59:39;101400;;;14.04279
74450;BMP180;62881;53.724;0.040;2022-08-20T01:04:41;101400;;;14.00093
74450;BMP180;62881;53.724;0.040;2022-08-20T01:09:42;101400;;;14.02059
74450;BMP180;62881;53.724;0.040;2022-08-20T01:14:43;101400;;;14.00156
74450;BMP180;62881;53.724;0.040;2022-08-20T01:19:52;101400;;;13.9283
74450;BMP180;62881;53.724;0.040;2022-08-20T01:25:03;101400;;;13.98824
74450;BMP180;62881;53.724;0.040;2022-08-20T01:30:08;101400;;;13.86329
74450;BMP180;62881;53.724;0.040;2022-08-20T01:35:09;101400;;;13.75165
74450;BMP180;62881;53.724;0.040;2022-08-20T01:40:10;101400;;;13.62479
74450;BMP180;62881;53.724;0.040;2022-08-20T01:45:13;101400;;;13.68727
74450;BMP180;62881;53.724;0.040;2022-08-20T01:50:15;101400;;;13.65619
74450;BMP180;62881;53.724;0.040;2022-08-20T01:55:17;101400;;;13.57151
74450;BMP180;62881;53.724;0.040;2022-08-20T02:00:19;101400;;;13.49349
74450;BMP180;62881;53.724;0.040;2022-08-20T02:05:20;101400;;;13.43673
74450;BMP180;62881;53.724;0.040;2022-08-20T02:10:21;101400;;;13.39423
74450;BMP180;62881;53.724;0.040;2022-08-20T02:15:22;101400;;;13.36632
74450;BMP180;62881;53.724;0.040;2022-08-20T02:20:26;101400;;;13.31843
74450;BMP180;62881;53.724;0.040;2022-08-20T02:25:29;101400;;;13.28576
74450;BMP180;62881;53.724;0.040;2022-08-20T02:30:33;101400;;;13.32446
74450;BMP180;62881;53.724;0.040;2022-08-20T02:35:34;101400;;;13.26547
74450;BMP180;62881;53.724;0.040;2022-08-20T02:40:35;101400;;;13.22012
74450;BMP180;62881;53.724;0.040;2022-08-20T02:45:36;101400;;;13.19982
74450;BMP180;62881;53.724;0.040;2022-08-20T02:50:37;101400;;;13.23248
74450;BMP180;62881;53.724;0.040;2022-08-20T02:55:42;101400;;;13.08089
74450;BMP180;62881;53.724;0.040;2022-08-20T03:00:43;101400;;;13.02634
74450;BMP180;62881;53.724;0.040;2022-08-20T03:05:44;101400;;;13.05203
74450;BMP180;62881;53.724;0.040;2022-08-20T03:10:45;101400;;;13.10182
74450;BMP180;62881;53.724;0.040;2022-08-20T03:15:47;101400;;;13.07455
74450;BMP180;62881;53.724;0.040;2022-08-20T03:20:48;101400;;;13.02571
74450;BMP180;62881;53.724;0.040;2022-08-20T03:25:50;101400;;;12.98289
74450;BMP180;62881;53.724;0.040;2022-08-20T03:30:51;101400;;;13.03712
74450;BMP180;62881;53.724;0.040;2022-08-20T03:35:52;101400;;;13.07264
74450;BMP180;62881;53.724;0.040;2022-08-20T03:40:53;101400;;;13.15827
74450;BMP180;62881;53.724;0.040;2022-08-20T03:45:54;101400;;;13.13258
74450;BMP180;62881;53.724;0.040;2022-08-20T03:50:55;101400;;;13.03839
74450;BMP180;62881;53.724;0.040;2022-08-20T03:55:57;101400;;;13.01302
74450;BMP180;62881;53.724;0.040;2022-08-20T04:00:58;101400;;;13.12339
74450;BMP180;62881;53.724;0.040;2022-08-20T04:05:59;101400;;;13.15827
74450;BMP180;62881;53.724;0.040;2022-08-20T04:11:00;101400;;;13.20743
74450;BMP180;62881;53.724;0.040;2022-08-20T04:16:01;101400;;;13.19633
74450;BMP180;62881;53.724;0.040;2022-08-20T04:21:02;101400;;;13.31621
74450;BMP180;62881;53.724;0.040;2022-08-20T04:26:04;101400;;;13.24866
74450;BMP180;62881;53.724;0.040;2022-08-20T04:31:04;101400;;;13.22519
74450;BMP180;62881;53.724;0.040;2022-08-20T04:36:06;101400;;;13.25088
74450;BMP180;62881;53.724;0.040;2022-08-20T04:41:07;101400;;;13.32572
74450;BMP180;62881;53.724;0.040;2022-08-20T04:46:08;101400;;;13.28672
74450;BMP180;62881;53.724;0.040;2022-08-20T04:51:09;101400;;;13.28576
74450;BMP180;62881;53.724;0.040;2022-08-20T04:56:10;101400;;;13.31526
74450;BMP180;62881;53.724;0.040;2022-08-20T05:01:16;101400;;;13.32002
74450;BMP180;62881;53.724;0.040;2022-08-20T05:06:17;101400;;;13.42563
74450;BMP180;62881;53.724;0.040;2022-08-20T05:11:18;101400;;;13.50903
74450;BMP180;62881;53.724;0.040;2022-08-20T05:16:19;101400;;;13.60323
74450;BMP180;62881;53.724;0.040;2022-08-20T05:21:20;101400;;;13.65334
74450;BMP180;62881;53.724;0.040;2022-08-20T05:26:20;101400;;;13.79288
74450;BMP180;62881;53.724;0.040;2022-08-20T05:31:21;101400;;;13.86329
74450;BMP180;62881;53.724;0.040;2022-08-20T05:36:22;101400;;;13.98317
74450;BMP180;62881;53.724;0.040;2022-08-20T05:41:24;101400;;;14.07546
74450;BMP180;62881;53.724;0.040;2022-08-20T05:46:25;101400;;;14.21627
74450;BMP180;62881;53.724;0.040;2022-08-20T05:51:26;101400;;;14.24703
74450;BMP180;62881;53.724;0.040;2022-08-20T05:56:27;101400;;;14.39958
74450;BMP180;62881;53.724;0.040;2022-08-20T06:01:28;101400;;;14.52454
74450;BMP180;62881;53.724;0.040;2022-08-20T06:06:29;101400;;;14.69136
74450;BMP180;62881;53.724;0.040;2022-08-20T06:11:30;101400;;;14.79063
74450;BMP180;62881;53.724;0.040;2022-08-20T06:16:31;101400;;;14.94825
74450;BMP180;62881;53.724;0.040;2022-08-20T06:21:32;101400;;;15.03927
74450;BMP180;62881;53.724;0.040;2022-08-20T06:26:33;101400;;;15.17787
74450;BMP180;62881;53.724;0.040;2022-08-20T06:31:34;101400;;;15.22734
74450;BMP180;62881;53.724;0.040;2022-08-20T06:36:35;101400;;;15.36213
74450;BMP180;62881;53.724;0.040;2022-08-20T06:41:36;101400;;;15.50009
74450;BMP180;62881;53.724;0.040;2022-08-20T06:46:37;101400;;;15.58382
74450;BMP180;62881;53.724;0.040;2022-08-20T06:51:38;101400;;;15.65772
74450;BMP180;62881;53.724;0.040;2022-08-20T06:56:39;101400;;;15.86609
74450;BMP180;62881;53.724;0.040;2022-08-20T07:01:39;101400;;;15.88163
74450;BMP180;62881;53.724;0.040;2022-08-20T07:06:40;101400;;;16.07287
74450;BMP180;62881;53.724;0.040;2022-08-20T07:11:41;101400;;;16.17944
74450;BMP180;62881;53.724;0.040;2022-08-20T07:16:45;101400;;;16.44236
74450;BMP180;62881;53.724;0.040;2022-08-20T07:21:46;101400;;;16.64946
74450;BMP180;62881;53.724;0.040;2022-08-20T07:26:47;101400;;;16.85276
74450;BMP180;62881;53.724;0.040;2022-08-20T07:31:48;101400;;;16.9682
74450;BMP180;62881;53.724;0.040;2022-08-20T07:36:49;101400;;;17.10997
74450;BMP180;62881;53.724;0.040;2022-08-20T07:41:50;101400;;;17.13471
74450;BMP180;62881;53.724;0.040;2022-08-20T07:46:51;101300;;;17.2971
74450;BMP180;62881;53.724;0.040;2022-08-20T07:51:52;101300;;;17.37036
74450;BMP180;62881;53.724;0.040;2022-08-20T07:56:53;101300;;;17.59237
74450;BMP180;62881;53.724;0.040;2022-08-20T08:01:54;101300;;;18.00405
74450;BMP180;62881;53.724;0.040;2022-08-20T08:06:55;101300;;;17.85244
74450;BMP180;62881;53.724;0.040;2022-08-20T08:11:56;101300;;;17.94315
74450;BMP180;62881;53.724;0.040;2022-08-20T08:16:59;101300;;;18.58763
74450;BMP180;62881;53.724;0.040;2022-08-20T08:22:01;101300;;;19.20451
74450;BMP180;62881;53.724;0.040;2022-08-20T08:27:02;101300;;;19.11348
74450;BMP180;62881;53.724;0.040;2022-08-20T08:32:07;101300;;;19.06781
74450;BMP180;62881;53.724;0.040;2022-08-20T08:37:15;101300;;;19.04688
74450;BMP180;62881;53.724;0.040;2022-08-20T08:42:21;101300;;;19.41257
74450;BMP180;62881;53.724;0.040;2022-08-20T08:47:27;101300;;;19.70849
74450;BMP180;62881;53.724;0.040;2022-08-20T08:52:31;101300;;;20.24006
74450;BMP180;62881;53.724;0.040;2022-08-20T08:57:32;101300;;;20.53884
74450;BMP180;62881;53.724;0.040;2022-08-20T09:02:33;101300;;;20.92959
74450;BMP180;62881;53.724;0.040;2022-08-20T09:07:34;101300;;;20.77449
74450;BMP180;62881;53.724;0.040;2022-08-20T09:12:35;101300;;;20.13666
74450;BMP180;62881;53.724;0.040;2022-08-20T09:17:36;101300;;;20.6527
74450;BMP180;62881;53.724;0.040;2022-08-20T09:22:37;101300;;;20.41768
74450;BMP180;62881;53.724;0.040;2022-08-20T09:27:38;101300;;;20.48555
74450;BMP180;62881;53.724;0.040;2022-08-20T09:32:39;101300;;;20.5566
74450;BMP180;62881;53.724;0.040;2022-08-20T09:37:40;101300;;;20.99556
74450;BMP180;62881;53.724;0.040;2022-08-20T09:42:41;101300;;;21.25691
74450;BMP180;62881;53.724;0.040;2022-08-20T09:47:42;101300;;;20.94957
74450;BMP180;62881;53.724;0.040;2022-08-20T09:52:43;101300;;;20.99493
74450;BMP180;62881;53.724;0.040;2022-08-20T09:57:45;101300;;;21.07105
74450;BMP180;62881;53.724;0.040;2022-08-20T10:02:47;101300;;;21.39901
74450;BMP180;62881;53.724;0.040;2022-08-20T10:07:48;101300;;;21.62166
74450;BMP180;62881;53.724;0.040;2022-08-20T10:12:49;101300;;;21.82307
74450;BMP180;62881;53.724;0.040;2022-08-20T10:17:50;101300;;;21.94835
74450;BMP180;62881;53.724;0.040;2022-08-20T10:22:52;101300;;;21.42026
74450;BMP180;62881;53.724;0.040;2022-08-20T10:27:53;101300;;;22.10757
74450;BMP180;62881;53.724;0.040;2022-08-20T10:32:54;101300;;;22.98267
74450;BMP180;62881;53.724;0.040;2022-08-20T10:37:55;101400;;;22.8098
74450;BMP180;62881;53.724;0.040;2022-08-20T10:43:01;101300;;;22.11487
74450;BMP180;62881;53.724;0.040;2022-08-20T10:48:02;101300;;;22.22905
74450;BMP180;62881;53.724;0.040;2022-08-20T10:53:03;101300;;;22.92335
74450;BMP180;62881;53.724;0.040;2022-08-20T10:58:04;101400;;;22.79965
74450;BMP180;62881;53.724;0.040;2022-08-20T11:03:05;101300;;;23.00392
74450;BMP180;62881;53.724;0.040;2022-08-20T11:08:06;101400;;;22.99313
74450;BMP180;62881;53.724;0.040;2022-08-20T11:13:07;101300;;;22.78792
74450;BMP180;62881;53.724;0.040;2022-08-20T11:18:13;101300;;;22.56875
74450;BMP180;62881;53.724;0.040;2022-08-20T11:23:14;101300;;;22.90083
74450;BMP180;62881;53.724;0.040;2022-08-20T11:28:15;101300;;;22.57351
74450;BMP180;62881;53.724;0.040;2022-08-20T11:33:16;101300;;;22.54782
74450;BMP180;62881;53.724;0.040;2022-08-20T11:38:17;101300;;;22.88276
74450;BMP180;62881;53.724;0.040;2022-08-20T11:43:18;101300;;;23.04579
74450;BMP180;62881;53.724;0.040;2022-08-20T11:48:24;101300;;;22.42507
74450;BMP180;62881;53.724;0.040;2022-08-20T11:53:25;101300;;;22.71751
74450;BMP180;62881;53.724;0.040;2022-08-20T11:58:26;101300;;;23.51616
74450;BMP180;62881;53.724;0.040;2022-08-20T12:03:27;101300;;;23.37153
74450;BMP180;62881;53.724;0.040;2022-08-20T12:08:28;101300;;;23.16758
74450;BMP180;62881;53.724;0.040;2022-08-20T12:13:29;101300;;;22.69625
74450;BMP180;62881;53.724;0.040;2022-08-20T12:18:30;101300;;;22.87673
74450;BMP180;62881;53.724;0.040;2022-08-20T12:23:31;101400;;;22.67437
74450;BMP180;62881;53.724;0.040;2022-08-20T12:28:32;101400;;;22.85421
74450;BMP180;62881;53.724;0.040;2022-08-20T12:33:33;101400;;;22.97283
74450;BMP180;62881;53.724;0.040;2022-08-20T12:38:34;101400;;;22.93572
74450;BMP180;62881;53.724;0.040;2022-08-20T12:43:35;101400;;;22.99916
74450;BMP180;62881;53.724;0.040;2022-08-20T12:48:36;101300;;;23.30904
74450;BMP180;62881;53.724;0.040;2022-08-20T12:53:37;101300;;;23.50348
74450;BMP180;62881;53.724;0.040;2022-08-20T12:58:38;101300;;;23.46637
74450;BMP180;62881;53.724;0.040;2022-08-20T13:03:39;101300;;;23.89329
74450;BMP180;62881;53.724;0.040;2022-08-20T13:08:40;101300;;;24.03095
74450;BMP180;62881;53.724;0.040;2022-08-20T13:13:41;101300;;;24.04713
74450;BMP180;62881;53.724;0.040;2022-08-20T13:18:42;101300;;;24.00145
74450;BMP180;62881;53.724;0.040;2022-08-20T13:23:43;101300;;;23.83208
74450;BMP180;62881;53.724;0.040;2022-08-20T13:28:44;101300;;;23.9821
74450;BMP180;62881;53.724;0.040;2022-08-20T13:33:45;101300;;;24.24029
74450;BMP180;62881;53.724;0.040;2022-08-20T13:38:46;101300;;;24.2663
74450;BMP180;62881;53.724;0.040;2022-08-20T13:43:47;101300;;;24.52703
74450;BMP180;62881;53.724;0.040;2022-08-20T13:48:47;101300;;;23.93865
74450;BMP180;62881;53.724;0.040;2022-08-20T13:53:49;101300;;;24.13594
74450;BMP180;62881;53.724;0.040;2022-08-20T13:58:50;101300;;;24.26503
74450;BMP180;62881;53.724;0.040;2022-08-20T14:03:51;101300;;;24.52163
74450;BMP180;62881;53.724;0.040;2022-08-20T14:08:52;101300;;;24.31356
74450;BMP180;62881;53.724;0.040;2022-08-20T14:13:53;101300;;;24.4065
74450;BMP180;62881;53.724;0.040;2022-08-20T14:18:54;101300;;;24.61203
74450;BMP180;62881;53.724;0.040;2022-08-20T14:23:55;101300;;;24.3253
74450;BMP180;62881;53.724;0.040;2022-08-20T14:28:56;101300;;;24.48199
74450;BMP180;62881;53.724;0.040;2022-08-20T14:33:57;101300;;;24.652
74450;BMP180;62881;53.724;0.040;2022-08-20T14:39:03;101300;;;24.71956
74450;BMP180;62881;53.724;0.040;2022-08-20T14:44:04;101300;;;24.65231
74450;BMP180;62881;53.724;0.040;2022-08-20T14:49:04;101300;;;24.78268
74450;BMP180;62881;53.724;0.040;2022-08-20T14:54:05;101300;;;24.49531
74450;BMP180;62881;53.724;0.040;2022-08-20T14:59:06;101300;;;24.64534
74450;BMP180;62881;53.724;0.040;2022-08-20T15:04:07;101300;;;24.9787
74450;BMP180;62881;53.724;0.040;2022-08-20T15:09:08;101300;;;24.84231
74450;BMP180;62881;53.724;0.040;2022-08-20T15:14:09;101300;;;24.30753
74450;BMP180;62881;53.724;0.040;2022-08-20T15:19:10;101300;;;24.46137
74450;BMP180;62881;53.724;0.040;2022-08-20T15:24:11;101300;;;24.40142
74450;BMP180;62881;53.724;0.040;2022-08-20T15:29:12;101200;;;24.30373
74450;BMP180;62881;53.724;0.040;2022-08-20T15:34:13;101200;;;23.9377
74450;BMP180;62881;53.724;0.040;2022-08-20T15:39:14;101200;;;23.92628
74450;BMP180;62881;53.724;0.040;2022-08-20T15:44:15;101200;;;24.28819
74450;BMP180;62881;53.724;0.040;2022-08-20T15:49:16;101200;;;24.33354
74450;BMP180;62881;53.724;0.040;2022-08-20T15:54:17;101200;;;24.59363
74450;BMP180;62881;53.724;0.040;2022-08-20T15:59:21;101200;;;24.42648
74450;BMP180;62881;53.724;0.040;2022-08-20T16:04:26;101200;;;24.18193
74450;BMP180;62881;53.724;0.040;2022-08-20T16:09:36;101200;;;24.61806
74450;BMP180;62881;53.724;0.040;2022-08-20T16:14:38;101200;;;24.76301
74450;BMP180;62881;53.724;0.040;2022-08-20T16:19:43;101200;;;24.41347
74450;BMP180;62881;53.724;0.040;2022-08-20T16:24:47;101200;;;23.97195
74450;BMP180;62881;53.724;0.040;2022-08-20T16:29:51;101200;;;23.82478
74450;BMP180;62881;53.724;0.040;2022-08-20T16:34:53;101200;;;23.99194
74450;BMP180;62881;53.724;0.040;2022-08-20T16:39:57;101200;;;24.11183
74450;BMP180;62881;53.724;0.040;2022-08-20T16:44:58;101200;;;24.03254
74450;BMP180;62881;53.724;0.040;2022-08-20T16:50:01;101200;;;24.02746
74450;BMP180;62881;53.724;0.040;2022-08-20T16:55:03;101200;;;24.24441
74450;BMP180;62881;53.724;0.040;2022-08-20T17:00:10;101200;;;23.74073
74450;BMP180;62881;53.724;0.040;2022-08-20T17:05:12;101200;;;23.72677
74450;BMP180;62881;53.724;0.040;2022-08-20T17:10:15;101200;;;23.95197
74450;BMP180;62881;53.724;0.040;2022-08-20T17:15:18;101200;;;24.03317
74450;BMP180;62881;53.724;0.040;2022-08-20T17:20:20;101200;;;23.99098
74450;BMP180;62881;53.724;0.040;2022-08-20T17:25:28;101200;;;24.04681
74450;BMP180;62881;53.724;0.040;2022-08-20T17:30:34;101200;;;23.95419
74450;BMP180;62881;53.724;0.040;2022-08-20T17:35:37;101200;;;23.50601
74450;BMP180;62881;53.724;0.040;2022-08-20T17:40:41;101200;;;23.36836
74450;BMP180;62881;53.724;0.040;2022-08-20T17:45:42;101200;;;23.44734
74450;BMP180;62881;53.724;0.040;2022-08-20T17:50:44;101200;;;23.29826
74450;BMP180;62881;53.724;0.040;2022-08-20T17:55:45;101200;;;23.1457
74450;BMP180;62881;53.724;0.040;2022-08-20T18:00:48;101200;;;22.9592
74450;BMP180;62881;53.724;0.040;2022-08-20T18:05:53;101200;;;22.9519
74450;BMP180;62881;53.724;0.040;2022-08-20T18:10:56;101200;;;22.95285
74450;BMP180;62881;53.724;0.040;2022-08-20T18:15:59;101200;;;22.88529
74450;BMP180;62881;53.724;0.040;2022-08-20T18:21:08;101300;;;22.59793
74450;BMP180;62881;53.724;0.040;2022-08-20T18:26:15;101300;;;22.59381
74450;BMP180;62881;53.724;0.040;2022-08-20T18:31:22;101300;;;22.5456
74450;BMP180;62881;53.724;0.040;2022-08-20T18:36:25;101200;;;22.55606
74450;BMP180;62881;53.724;0.040;2022-08-20T18:41:26;101200;;;22.42253
74450;BMP180;62881;53.724;0.040;2022-08-20T18:46:28;101200;;;22.19448
74450;BMP180;62881;53.724;0.040;2022-08-20T18:51:31;101200;;;22.05905
74450;BMP180;62881;53.724;0.040;2022-08-20T18:56:36;101200;;;21.87667
74450;BMP180;62881;53.724;0.040;2022-08-20T19:01:38;101200;;;21.67685
74450;BMP180;62881;53.724;0.040;2022-08-20T19:06:40;101300;;;21.70762
74450;BMP180;62881;53.724;0.040;2022-08-20T19:11:50;101300;;;21.69747
74450;BMP180;62881;53.724;0.040;2022-08-20T19:16:56;101300;;;21.63562
74450;BMP180;62881;53.724;0.040;2022-08-20T19:22:04;101300;;;21.56457
74450;BMP180;62881;53.724;0.040;2022-08-20T19:27:06;101300;;;21.37934
74450;BMP180;62881;53.724;0.040;2022-08-20T19:32:14;101300;;;21.25659
74450;BMP180;62881;53.724;0.040;2022-08-20T19:37:17;101300;;;21.18555
74450;BMP180;62881;53.724;0.040;2022-08-20T19:42:20;101300;;;21.0923
74450;BMP180;62881;53.724;0.040;2022-08-20T19:47:25;101300;;;20.93593
74450;BMP180;62881;53.724;0.040;2022-08-20T19:52:31;101300;;;20.92483
74450;BMP180;62881;53.724;0.040;2022-08-20T19:57:33;101300;;;20.98192
74450;BMP180;62881;53.724;0.040;2022-08-20T20:02:34;101300;;;20.88772
74450;BMP180;62881;53.724;0.040;2022-08-20T20:07:35;101300;;;20.79479
74450;BMP180;62881;53.724;0.040;2022-08-20T20:12:37;101300;;;20.73643
74450;BMP180;62881;53.724;0.040;2022-08-20T20:17:38;101300;;;20.6343
74450;BMP180;62881;53.724;0.040;2022-08-20T20:22:47;101300;;;20.68251
74450;BMP180;62881;53.724;0.040;2022-08-20T20:27:49;101300;;;20.67046
74450;BMP180;62881;53.724;0.040;2022-08-20T20:32:51;101300;;;20.48619
74450;BMP180;62881;53.724;0.040;2022-08-20T20:37:55;101300;;;20.27654
74450;BMP180;62881;53.724;0.040;2022-08-20T20:42:59;101300;;;20.16648
74450;BMP180;62881;53.724;0.040;2022-08-20T20:48:03;101300;;;20.16236
74450;BMP180;62881;53.724;0.040;2022-08-20T20:53:09;101300;;;20.13476
74450;BMP180;62881;53.724;0.040;2022-08-20T20:58:11;101300;;;20.07006
74450;BMP180;62881;53.724;0.040;2022-08-20T21:03:12;101300;;;20.07672
74450;BMP180;62881;53.724;0.040;2022-08-20T21:08:12;101300;;;19.86929
74450;BMP180;62881;53.724;0.040;2022-08-20T21:13:14;101300;;;19.71642
74450;BMP180;62881;53.724;0.040;2022-08-20T21:18:15;101300;;;19.55276
74450;BMP180;62881;53.724;0.040;2022-08-20T21:23:15;101300;;;19.48044
74450;BMP180;62881;53.724;0.040;2022-08-20T21:28:16;101300;;;19.29681
74450;BMP180;62881;53.724;0.040;2022-08-20T21:33:17;101300;;;19.18136
74450;BMP180;62881;53.724;0.040;2022-08-20T21:38:18;101300;;;19.16455
74450;BMP180;62881;53.724;0.040;2022-08-20T21:43:19;101300;;;19.12966
74450;BMP180;62881;53.724;0.040;2022-08-20T21:48:20;101300;;;19.00787
74450;BMP180;62881;53.724;0.040;2022-08-20T21:53:21;101300;;;18.96917
74450;BMP180;62881;53.724;0.040;2022-08-20T21:58:22;101300;;;18.80583
74450;BMP180;62881;53.724;0.040;2022-08-20T22:03:24;101300;;;18.61871
74450;BMP180;62881;53.724;0.040;2022-08-20T22:08:25;101300;;;18.43095
74450;BMP180;62881;53.724;0.040;2022-08-20T22:13:27;101300;;;18.28664
74450;BMP180;62881;53.724;0.040;2022-08-20T22:18:28;101300;;;18.01642
74450;BMP180;62881;53.724;0.040;2022-08-20T22:23:30;101300;;;18.02466
74450;BMP180;62881;53.724;0.040;2022-08-20T22:28:31;101300;;;17.93839
74450;BMP180;62881;53.724;0.040;2022-08-20T22:33:32;101300;;;17.99929
74450;BMP180;62881;53.724;0.040;2022-08-20T22:38:34;101300;;;17.98375
74450;BMP180;62881;53.724;0.040;2022-08-20T22:43:34;101300;;;17.95996
74450;BMP180;62881;53.724;0.040;2022-08-20T22:48:35;101300;;;17.98946
74450;BMP180;62881;53.724;0.040;2022-08-20T22:53:36;101300;;;18.05194
74450;BMP180;62881;53.724;0.040;2022-08-20T22:58:37;101300;;;17.98343
74450;BMP180;62881;53.724;0.040;2022-08-20T23:03:38;101300;;;17.75888
74450;BMP180;62881;53.724;0.040;2022-08-20T23:08:39;101300;;;17.62155
74450;BMP180;62881;53.724;0.040;2022-08-20T23:13:40;101300;;;17.63582
74450;BMP180;62881;53.724;0.040;2022-08-20T23:18:41;101300;;;17.67198
74450;BMP180;62881;53.724;0.040;2022-08-20T23:23:42;101300;;;17.67325
74450;BMP180;62881;53.724;0.040;2022-08-20T23:28:43;101300;;;17.64153
74450;BMP180;62881;53.724;0.040;2022-08-20T23:33:44;101300;;;17.51847
74450;BMP180;62881;53.724;0.040;2022-08-20T23:38:45;101300;;;17.34182
74450;BMP180;62881;53.724;0.040;2022-08-20T23:43:45;101300;;;17.25999
74450;BMP180;62881;53.724;0.040;2022-08-20T23:48:46;101300;;;17.15913
74450;BMP180;62881;53.724;0.040;2022-08-20T23:53:47;101300;;;17.15374
74450;BMP180;62881;53.724;0.040;2022-08-20T23:58:48;101300;;;17.12425
